Time;durP1;ratioP1;P1;durP2;ratioP2;P2;SDS_P1;SDS_P2;PMS_P1;PMS_P2;Temp;Humidity;BMP_temperature;BMP_pressure;BME280_temperature;BME280_humidity;BME280_pressure;Samples;Min_cycle;Max_cycle;Signal;HPM_P1;HPM_P2
2022/11/04 00:02:43;;;;;;;;;;;;;;;10.35;99.26;98353.38;10372133;22;19938;-79
2022/11/04 00:06:45;;;;;;;;;;;;;;;10.31;98.84;98356.06;10379577;22;20008;-79
2022/11/04 00:19:27;;;;;;;;;;;;;;;10.15;97.70;98390.06;10377631;22;19994;-79
2022/11/04 00:36:29;;;;;;;;;;;;;;;10.08;96.62;98396.25;10324728;22;19924;-79
2022/11/04 00:40:31;;;;;;;;;;;;;;;10.04;96.87;98388.53;10303153;23;20362;-80
2022/11/04 00:44:32;;;;;;;;;;;;;;;10.02;96.27;98403.28;10302642;23;19924;-79
2022/11/04 00:48:34;;;;;;;;;;;;;;;10.02;96.24;98404.13;10322574;23;19965;-78
2022/11/04 00:52:35;;;;;;;;;;;;;;;9.96;95.69;98405.09;10304216;23;20014;-78
2022/11/04 00:56:37;;;;;;;;;;;;;;;9.91;96.34;98404.34;10330183;23;20511;-78
2022/11/04 01:00:39;;;;;;;;;;;;;;;9.90;95.63;98402.63;10274433;23;19929;-78
2022/11/04 01:04:40;;;;;;;;;;;;;;;9.83;96.08;98392.38;10330546;23;20279;-78
2022/11/04 01:08:42;;;;;;;;;;;;;;;9.73;95.46;98383.06;10331667;23;20011;-79
2022/11/04 01:12:43;;;;;;;;;;;;;;;9.66;96.04;98382.28;10305038;23;20010;-79
2022/11/04 01:16:47;;;;;;;;;;;;;;;9.60;96.01;98397.97;10325369;23;20376;-80
2022/11/04 01:20:49;;;;;;;;;;;;;;;9.52;96.21;98405.88;10305173;23;19965;-80
2022/11/04 01:24:50;;;;;;;;;;;;;;;9.45;95.99;98403.38;10306022;23;19923;-78
2022/11/04 01:28:53;;;;;;;;;;;;;;;9.37;95.77;98401.78;10281393;23;19920;-80
2022/11/04 01:32:54;;;;;;;;;;;;;;;9.30;96.40;98402.72;10301570;23;20387;-80
2022/11/04 01:36:56;;;;;;;;;;;;;;;9.29;97.04;98403.63;10384393;22;20002;-79
2022/11/04 01:40:58;;;;;;;;;;;;;;;9.30;97.60;98401.88;10387086;22;19923;-79
2022/11/04 01:45:00;;;;;;;;;;;;;;;9.32;97.87;98393.19;10360320;22;19920;-80
2022/11/04 01:49:20;;;;;;;;;;;;;;;9.33;97.83;98391.47;10378472;22;19980;-80
2022/11/04 01:53:33;;;;;;;;;;;;;;;9.36;98.36;98391.44;10386270;22;19997;-80
2022/11/04 01:57:38;;;;;;;;;;;;;;;9.35;98.71;98372.47;10335112;22;20065;-80
2022/11/04 02:01:41;;;;;;;;;;;;;;;9.36;99.21;98378.50;10328092;22;19924;-79
2022/11/04 02:05:43;;;;;;;;;;;;;;;9.31;98.76;98378.53;10360137;22;19934;-79
2022/11/04 02:09:44;;;;;;;;;;;;;;;9.32;98.13;98374.22;10360389;22;20328;-81
2022/11/04 02:13:47;;;;;;;;;;;;;;;9.34;98.46;98369.88;10360135;22;20184;-79
2022/11/04 02:17:59;;;;;;;;;;;;;;;9.33;98.22;98366.41;10380513;22;19923;-80
2022/11/04 02:22:00;;;;;;;;;;;;;;;9.37;98.51;98372.44;10387129;22;20432;-80
2022/11/04 02:26:22;;;;;;;;;;;;;;;9.37;98.63;98368.09;10360253;22;19919;-81
2022/11/04 02:30:26;;;;;;;;;;;;;;;9.41;98.37;98374.09;10353605;22;19998;-80
2022/11/04 02:34:36;;;;;;;;;;;;;;;9.43;98.25;98366.28;10359263;22;19923;-79
2022/11/04 02:38:50;;;;;;;;;;;;;;;9.44;97.91;98358.47;10360757;22;19926;-80
2022/11/04 02:43:07;;;;;;;;;;;;;;;9.39;97.57;98349.94;10359356;22;19984;-80
2022/11/04 02:47:17;;;;;;;;;;;;;;;9.37;97.57;98338.75;10361022;22;19919;-80
2022/11/04 02:51:23;;;;;;;;;;;;;;;9.30;97.28;98330.19;10333959;22;20310;-80
2022/11/04 02:55:37;;;;;;;;;;;;;;;9.26;96.95;98315.59;10358699;22;19919;-80
2022/11/04 02:59:48;;;;;;;;;;;;;;;9.24;97.83;98316.50;10359952;22;19950;-81
2022/11/04 03:03:53;;;;;;;;;;;;;;;9.25;98.01;98308.72;10329510;22;20369;-80
2022/11/04 03:07:56;;;;;;;;;;;;;;;9.28;97.66;98308.66;10364394;22;19923;-80
2022/11/04 03:12:01;;;;;;;;;;;;;;;9.30;97.45;98312.06;10390438;22;20317;-80
2022/11/04 03:16:05;;;;;;;;;;;;;;;9.31;97.46;98307.75;10383071;22;19969;-81
2022/11/04 03:20:10;;;;;;;;;;;;;;;9.29;97.40;98320.72;10363363;22;19927;-80
2022/11/04 03:24:12;;;;;;;;;;;;;;;9.18;96.33;98324.38;10362791;22;20677;-79
2022/11/04 03:28:33;;;;;;;;;;;;;;;9.12;96.17;98317.56;10363048;22;20002;-79
2022/11/04 03:32:54;;;;;;;;;;;;;;;9.10;96.92;98308.97;10355378;22;19923;-80
2022/11/04 03:36:59;;;;;;;;;;;;;;;9.09;96.47;98307.25;10337887;23;20260;-80
2022/11/04 03:41:06;;;;;;;;;;;;;;;9.08;96.52;98298.63;10338029;22;19923;-81
2022/11/04 03:45:08;;;;;;;;;;;;;;;9.08;95.89;98285.69;10306851;23;20010;-80
2022/11/04 03:49:11;;;;;;;;;;;;;;;9.00;95.71;98289.28;10337130;23;19994;-80
2022/11/04 03:53:20;;;;;;;;;;;;;;;8.94;96.07;98279.00;10337246;22;20738;-81
2022/11/04 03:57:24;;;;;;;;;;;;;;;8.89;96.45;98270.47;10333949;23;19930;-81
2022/11/04 04:01:28;;;;;;;;;;;;;;;8.87;96.35;98262.72;10329351;22;19925;-79
2022/11/04 04:05:35;;;;;;;;;;;;;;;8.83;95.98;98255.91;10333282;23;19923;-79
2022/11/04 04:09:42;;;;;;;;;;;;;;;8.75;96.11;98257.72;10328260;23;20426;-80
2022/11/04 04:14:02;;;;;;;;;;;;;;;8.67;96.02;98252.69;10330748;23;19934;-79
2022/11/04 04:18:10;;;;;;;;;;;;;;;8.62;96.19;98251.06;10325520;23;19920;-78
2022/11/04 04:22:17;;;;;;;;;;;;;;;8.56;96.48;98245.94;10330698;23;19923;-79
2022/11/04 04:30:42;;;;;;;;;;;;;;;8.44;96.61;98234.94;10349243;22;19927;-79
2022/11/04 04:34:44;;;;;;;;;;;;;;;8.41;97.26;98228.91;10355963;22;20002;-79
2022/11/04 04:47:39;;;;;;;;;;;;;;;8.25;97.77;98224.81;10349052;22;20025;-78
2022/11/04 04:51:43;;;;;;;;;;;;;;;8.20;97.62;98219.69;10379531;22;19973;-78
2022/11/04 04:55:45;;;;;;;;;;;;;;;8.17;97.72;98210.25;10380694;22;19985;-78
2022/11/04 04:59:47;;;;;;;;;;;;;;;8.11;97.26;98212.09;10382420;22;19934;-78
2022/11/04 05:03:48;;;;;;;;;;;;;;;8.03;97.38;98209.59;10349799;22;20582;-79
2022/11/04 05:07:50;;;;;;;;;;;;;;;7.97;97.89;98203.66;10358970;22;19919;-79
2022/11/04 05:11:52;;;;;;;;;;;;;;;7.97;97.86;98201.06;10359398;22;19935;-78
2022/11/04 05:15:53;;;;;;;;;;;;;;;7.97;98.52;98201.94;10376889;22;20265;-78
2022/11/04 05:19:54;;;;;;;;;;;;;;;7.93;98.10;98189.06;10383374;22;20394;-78
2022/11/04 05:23:56;;;;;;;;;;;;;;;7.85;98.35;98192.59;10358120;22;19976;-78
2022/11/04 05:27:58;;;;;;;;;;;;;;;7.73;97.67;98197.09;10358276;22;19923;-78
2022/11/04 05:32:00;;;;;;;;;;;;;;;7.67;98.04;98190.25;10350232;22;19970;-78
2022/11/04 05:36:05;;;;;;;;;;;;;;;7.65;98.39;98207.50;10332389;22;19923;-78
2022/11/04 05:40:07;;;;;;;;;;;;;;;7.58;98.27;98222.22;10357848;22;20006;-78
2022/11/04 05:44:09;;;;;;;;;;;;;;;7.60;99.02;98222.19;10357964;22;20005;-78
2022/11/04 05:48:11;;;;;;;;;;;;;;;7.61;99.15;98243.72;10351758;22;19919;-79
2022/11/04 05:52:12;;;;;;;;;;;;;;;7.63;99.32;98241.97;10358192;22;19937;-79
2022/11/04 05:56:16;;;;;;;;;;;;;;;7.66;99.84;98249.69;10360279;22;19923;-79
2022/11/04 06:00:18;;;;;;;;;;;;;;;7.68;100.00;98253.94;10376972;22;20650;-79
2022/11/04 06:04:19;;;;;;;;;;;;;;;7.75;100.00;98258.19;10383634;22;19951;-78
2022/11/04 06:08:21;;;;;;;;;;;;;;;7.84;100.00;98252.03;10357614;22;19976;-78
2022/11/04 06:12:42;;;;;;;;;;;;;;;7.91;100.00;98250.25;10356339;22;19986;-80
2022/11/04 06:17:02;;;;;;;;;;;;;;;7.96;100.00;98251.06;10378264;22;19930;-80
2022/11/04 06:21:25;;;;;;;;;;;;;;;7.99;100.00;98254.44;10355819;22;19934;-80
2022/11/04 06:25:39;;;;;;;;;;;;;;;8.08;100.00;98266.41;10383736;22;19951;-80
2022/11/04 06:29:46;;;;;;;;;;;;;;;8.11;100.00;98279.31;10357371;22;19919;-79
2022/11/04 06:33:51;;;;;;;;;;;;;;;8.18;100.00;98284.38;10376919;22;19923;-79
2022/11/04 06:37:54;;;;;;;;;;;;;;;8.25;100.00;98290.31;10381423;22;19919;-78
2022/11/04 06:42:13;;;;;;;;;;;;;;;8.32;100.00;98291.94;10252712;23;20007;-77
2022/11/04 06:46:39;;;;;;;;;;;;;;;8.38;100.00;98288.44;10249693;23;19935;-77
2022/11/04 06:50:50;;;;;;;;;;;;;;;8.39;100.00;98285.00;10273046;23;19919;-79
2022/11/04 06:55:27;;;;;;;;;;;;;;;8.43;100.00;98287.50;10281545;23;19940;-80
2022/11/04 06:59:33;;;;;;;;;;;;;;;8.49;100.00;98286.59;10228022;23;20007;-78
2022/11/04 07:03:54;;;;;;;;;;;;;;;8.50;99.91;98284.84;10214175;23;19923;-78
2022/11/04 07:08:18;;;;;;;;;;;;;;;8.55;99.48;98281.31;10253489;23;19919;-79
2022/11/04 07:12:45;;;;;;;;;;;;;;;8.58;99.38;98288.19;10342457;22;19934;-80
2022/11/04 07:17:29;;;;;;;;;;;;;;;8.59;99.70;98292.47;10378825;22;19968;-79
2022/11/04 07:21:59;;;;;;;;;;;;;;;8.59;99.36;98288.16;10361196;22;20372;-80
2022/11/04 07:26:36;;;;;;;;;;;;;;;8.61;99.23;98296.75;10392307;22;19919;-81
2022/11/04 07:31:31;;;;;;;;;;;;;;;8.65;99.53;98293.25;10378561;22;19934;-81
2022/11/04 07:36:29;;;;;;;;;;;;;;;8.72;99.97;98287.09;10321403;23;19931;-81
2022/11/04 07:41:30;;;;;;;;;;;;;;;8.80;99.52;98287.00;10255021;23;19924;-81
2022/11/04 07:46:03;;;;;;;;;;;;;;;8.94;99.85;98300.56;10221339;23;19932;-81
2022/11/04 07:50:07;;;;;;;;;;;;;;;9.04;100.00;98296.97;10255642;23;19924;-81
2022/11/04 07:54:18;;;;;;;;;;;;;;;9.14;100.00;98308.03;10219314;23;19924;-81
2022/11/04 07:58:20;;;;;;;;;;;;;;;9.20;99.97;98307.94;10291811;23;20013;-81
2022/11/04 08:02:29;;;;;;;;;;;;;;;9.25;100.00;98311.31;10337090;22;19927;-81
2022/11/04 08:06:43;;;;;;;;;;;;;;;9.27;99.65;98308.69;10394855;22;20254;-81
2022/11/04 08:11:02;;;;;;;;;;;;;;;9.29;99.55;98310.38;10385199;22;20460;-78
2022/11/04 08:15:04;;;;;;;;;;;;;;;9.32;99.67;98322.41;10344740;22;19958;-79
2022/11/04 08:19:06;;;;;;;;;;;;;;;9.33;99.81;98314.59;10382679;22;19919;-80
2022/11/04 08:23:10;;;;;;;;;;;;;;;9.30;99.19;98319.84;10354261;22;19924;-78
2022/11/04 08:27:13;;;;;;;;;;;;;;;9.31;99.43;98321.56;10356560;22;19923;-80
2022/11/04 08:31:23;;;;;;;;;;;;;;;9.31;100.00;98316.38;10348985;22;19942;-77
2022/11/04 08:35:24;;;;;;;;;;;;;;;9.34;100.00;98326.72;10353458;22;19984;-78
2022/11/04 08:39:26;;;;;;;;;;;;;;;9.40;100.00;98315.38;10354246;22;19923;-77
2022/11/04 08:43:27;;;;;;;;;;;;;;;9.46;100.00;98319.59;10380530;22;20223;-79
2022/11/04 08:47:29;;;;;;;;;;;;;;;9.54;100.00;98316.00;10347547;22;20348;-77
2022/11/04 08:51:32;;;;;;;;;;;;;;;9.58;100.00;98309.03;10348510;22;19954;-77
2022/11/04 08:55:33;;;;;;;;;;;;;;;9.66;99.84;98305.41;10350337;22;20644;-77
2022/11/04 08:59:35;;;;;;;;;;;;;;;9.75;100.00;98300.94;10349433;22;20006;-78
2022/11/04 09:03:38;;;;;;;;;;;;;;;9.84;100.00;98299.00;10340278;22;19923;-78
2022/11/04 09:07:54;;;;;;;;;;;;;;;9.93;100.00;98303.19;10350469;22;19923;-77
2022/11/04 09:12:03;;;;;;;;;;;;;;;10.01;99.53;98303.88;10380471;22;19973;-78
2022/11/04 09:16:10;;;;;;;;;;;;;;;10.08;99.41;98300.28;10339654;22;19923;-77
2022/11/04 09:20:30;;;;;;;;;;;;;;;10.11;99.07;98304.56;10354085;22;19978;-78
2022/11/04 09:24:39;;;;;;;;;;;;;;;10.19;98.91;98302.66;10349884;22;19926;-78
2022/11/04 09:28:57;;;;;;;;;;;;;;;10.23;98.88;98305.22;10351258;22;20022;-78
2022/11/04 09:32:58;;;;;;;;;;;;;;;10.29;98.77;98301.63;10349511;22;19955;-77
2022/11/04 09:37:00;;;;;;;;;;;;;;;10.35;98.79;98298.03;10330850;23;20462;-77
2022/11/04 09:41:07;;;;;;;;;;;;;;;10.38;98.59;98298.81;10329612;23;19920;-78
2022/11/04 09:45:15;;;;;;;;;;;;;;;10.42;98.19;98294.44;10326405;22;20014;-80
2022/11/04 09:49:25;;;;;;;;;;;;;;;10.49;97.61;98289.06;10281491;23;19920;-77
2022/11/04 09:53:36;;;;;;;;;;;;;;;10.70;97.19;98295.53;10255615;23;19931;-78
2022/11/04 09:57:38;;;;;;;;;;;;;;;11.01;97.69;98300.03;10257036;23;20001;-78
2022/11/04 10:01:45;;;;;;;;;;;;;;;11.14;95.14;98299.69;10272773;23;19993;-77
2022/11/04 10:05:46;;;;;;;;;;;;;;;11.22;94.04;98299.50;10281213;23;19924;-77
2022/11/04 10:10:02;;;;;;;;;;;;;;;11.30;93.10;98299.28;10280791;23;20211;-78
2022/11/04 10:14:07;;;;;;;;;;;;;;;11.24;91.35;98304.66;10282589;23;20010;-76
2022/11/04 10:18:15;;;;;;;;;;;;;;;11.21;91.65;98313.38;10256324;23;19928;-81
2022/11/04 10:22:27;;;;;;;;;;;;;;;11.22;91.30;98307.28;10282681;23;20023;-77
2022/11/04 10:26:34;;;;;;;;;;;;;;;11.25;91.73;98302.03;10282013;23;19924;-77
2022/11/04 10:30:36;;;;;;;;;;;;;;;11.33;91.56;98301.84;10277026;22;19923;-77
2022/11/04 10:34:43;;;;;;;;;;;;;;;11.31;90.71;98301.88;10270151;23;20002;-77
2022/11/04 10:38:49;;;;;;;;;;;;;;;11.12;88.08;98311.84;10282024;23;19990;-78
2022/11/04 10:42:51;;;;;;;;;;;;;;;11.15;89.70;98308.34;10307003;23;20424;-78
2022/11/04 10:46:58;;;;;;;;;;;;;;;11.26;90.98;98319.31;10325995;23;20349;-81
2022/11/04 10:51:00;;;;;;;;;;;;;;;11.39;91.27;98309.47;10313445;23;20383;-80
2022/11/04 10:55:01;;;;;;;;;;;;;;;11.47;90.51;98310.13;10306671;23;19980;-78
2022/11/04 10:59:23;;;;;;;;;;;;;;;11.46;89.12;98309.28;10330337;23;19924;-78
2022/11/04 11:03:26;;;;;;;;;;;;;;;11.42;89.15;98306.78;10329690;23;19977;-78
2022/11/04 11:07:34;;;;;;;;;;;;;;;11.44;88.52;98315.41;10333865;23;19924;-78
2022/11/04 11:11:36;;;;;;;;;;;;;;;11.54;87.51;98316.03;10336132;23;20458;-81
2022/11/04 11:15:40;;;;;;;;;;;;;;;11.52;86.66;98326.47;10306297;23;20337;-81
2022/11/04 11:19:50;;;;;;;;;;;;;;;11.55;86.79;98333.34;10291004;23;19919;-82
2022/11/04 11:23:54;;;;;;;;;;;;;;;11.39;85.65;98331.13;10288997;23;19923;-80
2022/11/04 11:27:58;;;;;;;;;;;;;;;11.44;86.44;98329.25;10309237;23;19951;-82
2022/11/04 11:32:02;;;;;;;;;;;;;;;11.49;87.29;98330.03;10302035;23;19977;-80
2022/11/04 11:36:15;;;;;;;;;;;;;;;11.48;86.80;98333.47;10304824;23;19934;-79
2022/11/04 11:40:24;;;;;;;;;;;;;;;11.51;86.86;98340.38;10307439;23;19919;-78
2022/11/04 11:44:37;;;;;;;;;;;;;;;11.49;86.69;98336.97;10307999;23;19920;-81
2022/11/04 11:48:41;;;;;;;;;;;;;;;11.55;86.34;98339.41;10330706;23;20410;-81
2022/11/04 11:52:44;;;;;;;;;;;;;;;11.62;86.42;98335.75;10307382;23;19924;-81
2022/11/04 11:56:49;;;;;;;;;;;;;;;11.66;85.26;98342.56;10281148;23;19923;-80
2022/11/04 12:01:10;;;;;;;;;;;;;;;11.60;84.92;98342.72;10309011;23;19919;-81
2022/11/04 12:05:44;;;;;;;;;;;;;;;11.64;85.17;98338.28;10340322;23;19919;-82
2022/11/04 12:14:58;;;;;;;;;;;;;;;11.73;84.47;98340.69;10336680;23;20386;-81
2022/11/04 12:19:18;;;;;;;;;;;;;;;11.80;85.98;98337.03;10302766;23;19958;-81
2022/11/04 12:23:23;;;;;;;;;;;;;;;11.85;84.66;98342.13;10311261;23;20261;-81
2022/11/04 12:27:32;;;;;;;;;;;;;;;11.84;84.37;98345.59;10336067;23;19962;-80
2022/11/04 12:31:50;;;;;;;;;;;;;;;11.90;84.26;98341.13;10316338;22;19923;-87
2022/11/04 12:35:52;;;;;;;;;;;;;;;11.95;83.63;98336.63;10279243;23;19947;-80
2022/11/04 12:39:53;;;;;;;;;;;;;;;12.05;83.62;98337.25;10231186;23;19927;-80
2022/11/04 12:44:14;;;;;;;;;;;;;;;12.16;83.61;98339.53;10254408;23;19963;-80
2022/11/04 12:48:21;;;;;;;;;;;;;;;12.22;82.88;98331.59;10274151;23;19977;-80
2022/11/04 12:52:30;;;;;;;;;;;;;;;12.27;84.40;98332.31;10281459;23;19928;-81
2022/11/04 12:56:36;;;;;;;;;;;;;;;12.29;83.91;98333.09;10255000;23;20023;-79
2022/11/04 13:00:40;;;;;;;;;;;;;;;12.24;82.48;98335.00;10222275;23;19983;-79
2022/11/04 13:04:47;;;;;;;;;;;;;;;12.23;82.32;98331.53;10252972;23;19923;-79
2022/11/04 13:08:55;;;;;;;;;;;;;;;12.25;82.40;98336.72;10253134;23;19920;-79
2022/11/04 13:12:59;;;;;;;;;;;;;;;12.27;82.86;98340.13;10225883;23;20359;-79
2022/11/04 13:17:06;;;;;;;;;;;;;;;12.21;82.90;98342.88;10246055;23;20227;-79
2022/11/04 13:21:15;;;;;;;;;;;;;;;12.04;82.08;98340.75;10251312;23;20010;-79
2022/11/04 13:25:37;;;;;;;;;;;;;;;12.03;82.60;98354.66;10228162;23;20210;-80
2022/11/04 13:29:39;;;;;;;;;;;;;;;12.03;83.23;98352.06;10231224;23;19923;-79
2022/11/04 13:33:53;;;;;;;;;;;;;;;11.97;82.96;98357.41;10275070;23;20000;-79
2022/11/04 13:37:58;;;;;;;;;;;;;;;11.95;82.63;98354.84;10206432;23;19924;-79
2022/11/04 13:42:08;;;;;;;;;;;;;;;11.94;82.90;98362.69;10182031;23;19924;-79
2022/11/04 13:46:10;;;;;;;;;;;;;;;11.90;82.37;98369.72;10245091;23;19931;-80
2022/11/04 13:50:29;;;;;;;;;;;;;;;11.88;83.42;98371.53;10306679;23;19928;-80
2022/11/04 13:54:41;;;;;;;;;;;;;;;11.90;82.71;98380.13;10308663;23;19977;-80
2022/11/04 13:58:50;;;;;;;;;;;;;;;11.93;81.86;98387.84;10283486;23;19933;-80
2022/11/04 14:02:53;;;;;;;;;;;;;;;11.95;82.45;98388.66;10299891;23;19953;-80
2022/11/04 14:06:56;;;;;;;;;;;;;;;11.94;80.47;98399.13;10306019;23;19923;-80
2022/11/04 14:10:59;;;;;;;;;;;;;;;11.94;82.06;98407.78;10332327;23;19928;-80
2022/11/04 14:15:03;;;;;;;;;;;;;;;11.89;81.97;98416.59;10334398;23;19927;-80
2022/11/04 14:19:43;;;;;;;;;;;;;;;11.84;83.16;98421.88;10333830;23;20329;-80
2022/11/04 14:23:46;;;;;;;;;;;;;;;11.74;85.48;98429.06;10146616;23;20505;-80
2022/11/04 14:27:48;;;;;;;;;;;;;;;11.70;85.46;98422.22;10228183;23;19931;-80
2022/11/04 14:31:51;;;;;;;;;;;;;;;11.70;86.62;98419.63;10301056;23;20002;-80
2022/11/04 14:35:54;;;;;;;;;;;;;;;11.70;88.59;98436.97;10308061;23;20356;-81
2022/11/04 14:39:59;;;;;;;;;;;;;;;11.70;89.02;98442.16;10310851;23;20361;-81
2022/11/04 14:44:06;;;;;;;;;;;;;;;11.68;88.07;98451.75;10338203;23;19923;-81
2022/11/04 14:48:26;;;;;;;;;;;;;;;11.66;86.20;98456.13;10350290;22;19904;-84
2022/11/04 14:52:48;;;;;;;;;;;;;;;11.63;86.46;98467.44;10387564;22;19927;-88
2022/11/04 14:57:05;;;;;;;;;;;;;;;11.62;88.87;98470.94;10363118;22;19910;-85
2022/11/04 15:01:15;;;;;;;;;;;;;;;11.60;89.61;98479.66;10368477;22;19927;-86
2022/11/04 15:05:24;;;;;;;;;;;;;;;11.52;90.90;98492.00;10366402;22;19943;-86
2022/11/04 15:09:28;;;;;;;;;;;;;;;11.46;91.32;98490.38;10366410;22;19910;-86
2022/11/04 15:13:42;;;;;;;;;;;;;;;11.40;91.97;98487.94;10363218;22;19963;-88
2022/11/04 15:17:45;;;;;;;;;;;;;;;11.39;92.71;98494.00;10386104;22;19918;-85
2022/11/04 15:21:48;;;;;;;;;;;;;;;11.37;93.02;98501.00;10363221;22;19944;-85
2022/11/04 15:25:49;;;;;;;;;;;;;;;11.35;93.13;98505.38;10335997;22;19907;-91
2022/11/04 15:29:54;;;;;;;;;;;;;;;11.30;92.93;98510.66;10284299;23;20058;-81
2022/11/04 15:33:57;;;;;;;;;;;;;;;11.29;93.00;98521.06;10301679;23;19953;-81
2022/11/04 15:38:00;;;;;;;;;;;;;;;11.25;93.03;98519.44;10287601;23;20018;-82
2022/11/04 15:46:25;;;;;;;;;;;;;;;11.02;93.95;98535.50;10325117;23;19923;-88
2022/11/04 15:50:29;;;;;;;;;;;;;;;10.98;95.04;98539.06;10300125;23;20307;-86
2022/11/04 15:54:33;;;;;;;;;;;;;;;11.00;95.61;98545.94;10323777;23;20703;-83
2022/11/04 15:58:34;;;;;;;;;;;;;;;11.00;96.19;98550.28;10314138;23;19923;-82
2022/11/04 16:02:38;;;;;;;;;;;;;;;10.97;96.54;98563.31;10332780;23;19970;-82
2022/11/04 16:06:43;;;;;;;;;;;;;;;10.93;96.36;98569.44;10313678;23;20090;-85
2022/11/04 16:10:45;;;;;;;;;;;;;;;10.84;96.52;98575.69;10313686;23;19967;-78
2022/11/04 16:14:47;;;;;;;;;;;;;;;10.79;96.56;98582.72;10308328;23;19924;-80
2022/11/04 16:18:56;;;;;;;;;;;;;;;10.74;97.26;98592.28;10301729;23;19924;-80
2022/11/04 16:22:58;;;;;;;;;;;;;;;10.71;97.73;98595.81;10306967;23;19919;-79
2022/11/04 16:27:00;;;;;;;;;;;;;;;10.71;98.19;98594.94;10335959;23;19920;-82
2022/11/04 16:31:03;;;;;;;;;;;;;;;10.64;98.07;98596.81;10304154;23;19959;-80
2022/11/04 16:35:11;;;;;;;;;;;;;;;10.62;98.26;98600.31;10309323;23;19963;-79
2022/11/04 16:39:13;;;;;;;;;;;;;;;10.57;98.52;98603.81;10281601;23;20295;-79
2022/11/04 16:43:18;;;;;;;;;;;;;;;10.56;98.91;98614.25;10332632;23;19945;-81
2022/11/04 16:47:19;;;;;;;;;;;;;;;10.54;98.48;98616.00;10303423;23;19938;-81
2022/11/04 16:51:22;;;;;;;;;;;;;;;10.51;98.67;98632.50;10310028;23;20366;-81
2022/11/04 16:55:24;;;;;;;;;;;;;;;10.45;98.57;98635.19;10307282;23;19956;-80
2022/11/04 16:59:25;;;;;;;;;;;;;;;10.44;98.86;98650.81;10306752;23;20073;-80
2022/11/04 17:03:26;;;;;;;;;;;;;;;10.46;98.86;98657.69;10331022;23;19923;-81
2022/11/04 17:07:28;;;;;;;;;;;;;;;10.44;99.06;98659.44;10337105;23;19923;-80
2022/11/04 17:11:49;;;;;;;;;;;;;;;10.39;99.18;98655.19;10335288;23;19923;-80
2022/11/04 17:15:51;;;;;;;;;;;;;;;10.35;98.28;98654.38;10304419;23;19942;-81
2022/11/04 17:19:52;;;;;;;;;;;;;;;10.25;98.88;98658.00;10312061;23;20014;-81
2022/11/04 17:23:55;;;;;;;;;;;;;;;10.25;99.13;98669.25;10308484;23;20715;-81
2022/11/04 17:27:56;;;;;;;;;;;;;;;10.22;98.75;98674.44;10311783;23;19989;-83
2022/11/04 17:31:57;;;;;;;;;;;;;;;10.19;98.64;98679.66;10331536;23;19978;-83
2022/11/04 17:35:59;;;;;;;;;;;;;;;10.11;98.55;98684.09;10309678;23;19924;-81
2022/11/04 17:40:10;;;;;;;;;;;;;;;10.03;98.61;98696.31;10286352;23;19919;-81
2022/11/04 17:44:12;;;;;;;;;;;;;;;10.04;99.25;98700.63;10310733;23;19991;-80
2022/11/04 17:48:14;;;;;;;;;;;;;;;10.05;99.27;98709.25;10328910;22;20006;-80
2022/11/04 17:52:15;;;;;;;;;;;;;;;10.04;99.42;98723.97;10309178;23;19924;-80
2022/11/04 17:56:17;;;;;;;;;;;;;;;10.01;99.13;98734.38;10310597;23;20625;-81
2022/11/04 18:00:23;;;;;;;;;;;;;;;9.94;99.37;98730.16;10331520;23;19981;-81
2022/11/04 18:04:24;;;;;;;;;;;;;;;9.93;99.89;98744.00;10285552;23;19946;-80
2022/11/04 18:08:25;;;;;;;;;;;;;;;9.91;99.94;98746.63;10308500;23;19976;-78
2022/11/04 18:12:36;;;;;;;;;;;;;;;9.93;100.00;98751.78;10281819;23;19924;-79
2022/11/04 18:16:37;;;;;;;;;;;;;;;9.91;100.00;98756.13;10299732;23;19936;-80
2022/11/04 18:20:38;;;;;;;;;;;;;;;9.84;100.00;98763.09;10336339;23;20012;-82
2022/11/04 18:24:40;;;;;;;;;;;;;;;9.84;100.00;98759.66;10310995;23;19990;-82
2022/11/04 18:28:41;;;;;;;;;;;;;;;9.81;100.00;98770.06;10288115;23;20343;-84
2022/11/04 18:32:43;;;;;;;;;;;;;;;9.74;100.00;98771.03;10331588;23;19923;-82
2022/11/04 18:36:45;;;;;;;;;;;;;;;9.67;100.00;98780.59;10339397;23;19947;-82
2022/11/04 18:40:46;;;;;;;;;;;;;;;9.63;100.00;98779.75;10314146;23;19939;-84
2022/11/04 18:44:48;;;;;;;;;;;;;;;9.69;100.00;98790.09;10339261;23;19931;-82
2022/11/04 18:48:49;;;;;;;;;;;;;;;9.72;100.00;98796.13;10305179;23;19955;-83
2022/11/04 18:52:52;;;;;;;;;;;;;;;9.70;100.00;98803.91;10338705;23;19924;-82
2022/11/04 18:56:54;;;;;;;;;;;;;;;9.66;100.00;98803.06;10287170;23;20002;-82
2022/11/04 19:00:55;;;;;;;;;;;;;;;9.66;100.00;98809.97;10312954;23;19981;-84
2022/11/04 19:04:56;;;;;;;;;;;;;;;9.65;100.00;98808.25;10311733;23;20049;-81
2022/11/04 19:09:06;;;;;;;;;;;;;;;9.62;100.00;98809.16;10312787;23;20014;-82
2022/11/04 19:13:27;;;;;;;;;;;;;;;9.61;100.00;98822.97;10313724;23;20265;-82
2022/11/04 19:17:28;;;;;;;;;;;;;;;9.58;100.00;98810.06;10307471;23;19954;-86
2022/11/04 19:21:30;;;;;;;;;;;;;;;9.60;100.00;98820.41;10313829;23;19924;-83
2022/11/04 19:25:31;;;;;;;;;;;;;;;9.60;100.00;98820.41;10315307;23;20344;-85
2022/11/04 19:29:33;;;;;;;;;;;;;;;9.58;100.00;98824.75;10317155;23;19958;-82
2022/11/04 19:33:34;;;;;;;;;;;;;;;9.53;100.00;98830.00;10275901;23;19980;-82
2022/11/04 19:37:36;;;;;;;;;;;;;;;9.53;100.00;98840.34;10333381;23;19923;-81
2022/11/04 19:45:59;;;;;;;;;;;;;;;9.47;100.00;98852.50;10342286;23;19923;-86
2022/11/04 19:50:05;;;;;;;;;;;;;;;9.39;100.00;98855.16;10318668;23;19919;-83
2022/11/04 19:54:08;;;;;;;;;;;;;;;9.38;100.00;98861.22;10350575;23;19924;-85
2022/11/04 19:58:10;;;;;;;;;;;;;;;9.39;100.00;98868.13;10357696;23;20195;-84
2022/11/04 20:02:13;;;;;;;;;;;;;;;9.37;100.00;98872.44;10333556;23;19968;-84
2022/11/04 20:06:15;;;;;;;;;;;;;;;9.33;100.00;98879.34;10362575;23;20223;-84
2022/11/04 20:10:16;;;;;;;;;;;;;;;9.31;100.00;98888.88;10360525;22;19903;-86
2022/11/04 20:14:18;;;;;;;;;;;;;;;9.29;100.00;98887.19;10328226;23;19920;-86
2022/11/04 20:18:20;;;;;;;;;;;;;;;9.26;100.00;98897.56;10328707;23;19920;-85
2022/11/04 20:22:21;;;;;;;;;;;;;;;9.29;100.00;98908.75;10358051;23;19923;-86
2022/11/04 20:26:23;;;;;;;;;;;;;;;9.27;100.00;98904.47;10355876;23;20504;-83
2022/11/04 20:30:25;;;;;;;;;;;;;;;9.25;100.00;98917.44;10298484;23;20001;-83
2022/11/04 20:34:26;;;;;;;;;;;;;;;9.24;100.00;98922.63;10327830;23;19920;-83
2022/11/04 20:38:33;;;;;;;;;;;;;;;9.19;100.00;98926.97;10332081;23;19934;-85
2022/11/04 20:42:34;;;;;;;;;;;;;;;9.20;100.00;98928.69;10339657;23;19931;-85
2022/11/04 20:46:36;;;;;;;;;;;;;;;9.22;100.00;98939.91;10325493;23;19934;-83
2022/11/04 20:50:37;;;;;;;;;;;;;;;9.20;100.00;98942.50;10305178;23;19947;-83
2022/11/04 20:54:38;;;;;;;;;;;;;;;9.21;100.00;98948.56;10300785;23;20237;-83
2022/11/04 20:58:41;;;;;;;;;;;;;;;9.20;100.00;98949.44;10325073;23;20339;-83
2022/11/04 21:02:42;;;;;;;;;;;;;;;9.24;100.00;98953.72;10281821;23;19927;-83
2022/11/04 21:06:44;;;;;;;;;;;;;;;9.26;100.00;98964.91;10313594;23;19927;-82
2022/11/04 21:10:49;;;;;;;;;;;;;;;9.29;100.00;98977.84;10314080;23;19984;-83
2022/11/04 21:14:50;;;;;;;;;;;;;;;9.30;100.00;98992.53;10306203;23;19998;-80
2022/11/04 21:18:53;;;;;;;;;;;;;;;9.28;100.00;98992.53;10300179;23;20005;-81
2022/11/04 21:22:54;;;;;;;;;;;;;;;9.29;100.00;98994.25;10305990;23;20299;-80
2022/11/04 21:26:55;;;;;;;;;;;;;;;9.30;100.00;98997.69;10280452;23;19976;-79
2022/11/04 21:31:01;;;;;;;;;;;;;;;9.27;100.00;99008.94;10296198;23;20747;-79
2022/11/04 21:35:02;;;;;;;;;;;;;;;9.25;100.00;99018.47;10278134;23;20376;-79
2022/11/04 21:39:04;;;;;;;;;;;;;;;9.28;100.00;99023.63;10305682;23;19958;-79
2022/11/04 21:43:05;;;;;;;;;;;;;;;9.29;100.00;99029.66;10279633;23;19988;-80
2022/11/04 21:47:07;;;;;;;;;;;;;;;9.25;100.00;99027.97;10300635;23;20002;-79
2022/11/04 21:51:10;;;;;;;;;;;;;;;9.26;100.00;99034.88;10335131;23;20284;-79
2022/11/04 21:55:11;;;;;;;;;;;;;;;9.26;100.00;99038.31;10308725;23;19988;-79
2022/11/04 21:59:12;;;;;;;;;;;;;;;9.28;100.00;99038.31;10311591;23;20440;-79
2022/11/04 22:03:18;;;;;;;;;;;;;;;9.26;100.00;99034.88;10305073;23;19924;-82